createdAt,value
2018-06-19T00:00:20.424Z,20.90
2018-06-19T00:02:48.862Z,20.90
2018-06-19T00:05:17.244Z,20.90
2018-06-19T00:07:45.600Z,20.80
2018-06-19T00:10:13.922Z,20.80
2018-06-19T00:15:10.283Z,20.80
2018-06-19T00:17:38.570Z,20.80
2018-06-19T00:25:02.875Z,20.70
2018-06-19T00:27:31.156Z,20.70
2018-06-19T00:29:59.441Z,20.70
2018-06-19T00:32:27.708Z,20.60
2018-06-19T00:37:23.989Z,20.60
2018-06-19T00:39:52.268Z,20.60
2018-06-19T00:42:20.518Z,20.60
2018-06-19T00:47:16.854Z,20.60
2018-06-19T00:49:45.141Z,20.50
2018-06-19T00:52:13.428Z,20.50
2018-06-19T00:54:41.714Z,20.50
2018-06-19T00:57:09.990Z,20.50
2018-06-19T00:59:38.269Z,20.50
2018-06-19T01:02:06.553Z,20.50
2018-06-19T01:04:34.841Z,20.50
2018-06-19T01:07:03.106Z,20.50
2018-06-19T01:09:31.396Z,20.50
2018-06-19T01:11:59.667Z,20.50
2018-06-19T01:14:27.962Z,20.40
2018-06-19T01:16:56.277Z,20.40
2018-06-19T01:19:24.545Z,20.40
2018-06-19T01:24:20.835Z,20.40
2018-06-19T01:26:49.211Z,20.40
2018-06-19T01:29:17.505Z,20.40
2018-06-19T01:31:45.788Z,20.30
2018-06-19T01:34:14.065Z,20.40
2018-06-19T01:36:42.343Z,20.30
2018-06-19T01:39:11.263Z,20.30
2018-06-19T01:41:39.795Z,20.30
2018-06-19T01:44:08.160Z,20.30
2018-06-19T01:46:36.494Z,20.30
2018-06-19T01:49:04.945Z,20.30
2018-06-19T01:51:33.227Z,20.30
2018-06-19T01:54:01.524Z,20.30
2018-06-19T01:58:58.244Z,20.30
2018-06-19T02:01:26.509Z,20.30
2018-06-19T02:03:54.893Z,20.30
2018-06-19T02:06:23.186Z,20.30
2018-06-19T02:08:51.469Z,20.30
2018-06-19T02:11:19.743Z,20.20
2018-06-19T02:13:48.059Z,20.20
2018-06-19T02:16:16.383Z,20.20
2018-06-19T02:18:44.657Z,20.20
2018-06-19T02:21:12.934Z,20.20
2018-06-19T02:23:41.207Z,20.20
2018-06-19T02:26:09.483Z,20.20
2018-06-19T02:28:37.745Z,20.10
2018-06-19T02:31:06.049Z,20.10
2018-06-19T02:33:35.768Z,20.10
2018-06-19T02:36:04.029Z,20.10
2018-06-19T02:38:32.347Z,20.10
2018-06-19T02:41:00.667Z,20.20
2018-06-19T02:43:28.974Z,20.10
2018-06-19T02:45:57.250Z,20.10
2018-06-19T02:53:21.643Z,20.10
2018-06-19T02:55:49.958Z,20.10
2018-06-19T02:58:18.239Z,20.00
2018-06-19T03:00:46.522Z,20.00
2018-06-19T03:03:14.785Z,20.00
2018-06-19T03:05:43.067Z,20.00
2018-06-19T03:08:11.342Z,20.00
2018-06-19T03:10:39.601Z,20.00
2018-06-19T03:15:35.993Z,20.00
2018-06-19T03:18:04.281Z,20.00
2018-06-19T03:20:32.551Z,20.00
2018-06-19T03:23:00.837Z,19.90
2018-06-19T03:25:29.113Z,19.90
2018-06-19T03:27:57.383Z,19.90
2018-06-19T03:30:25.792Z,19.90
2018-06-19T03:35:22.041Z,19.90
2018-06-19T03:37:50.323Z,19.80
2018-06-19T03:40:18.615Z,19.80
2018-06-19T03:42:46.897Z,19.80
2018-06-19T03:45:15.181Z,19.80
2018-06-19T03:47:43.475Z,19.80
2018-06-19T03:50:11.767Z,19.80
2018-06-19T03:52:40.065Z,19.80
2018-06-19T03:55:08.323Z,19.80
2018-06-19T03:57:36.643Z,19.80
2018-06-19T04:00:05.011Z,19.80
2018-06-19T04:02:34.285Z,19.80
2018-06-19T04:05:02.548Z,19.80
2018-06-19T04:07:30.825Z,19.80
2018-06-19T04:09:59.981Z,19.70
2018-06-19T04:12:28.248Z,19.80
2018-06-19T04:14:56.567Z,19.80
2018-06-19T04:17:27.285Z,19.70
2018-06-19T04:19:56.987Z,19.80
2018-06-19T04:24:54.424Z,19.80
2018-06-19T04:27:22.873Z,19.80
2018-06-19T04:29:51.156Z,19.80
2018-06-19T04:32:19.417Z,19.80
2018-06-19T04:34:47.744Z,19.70
2018-06-19T04:37:16.412Z,19.80
2018-06-19T04:39:44.683Z,19.80
2018-06-19T04:42:12.986Z,19.80
2018-06-19T04:44:41.240Z,19.80
2018-06-19T04:47:09.514Z,19.80
2018-06-19T04:49:37.875Z,19.80
2018-06-19T04:52:06.408Z,19.80
2018-06-19T04:54:35.005Z,19.90
2018-06-19T04:57:03.261Z,19.80
2018-06-19T04:59:31.687Z,19.90
2018-06-19T05:04:27.987Z,19.90
2018-06-19T05:06:56.258Z,19.90
2018-06-19T05:09:24.537Z,19.90
2018-06-19T05:11:52.824Z,19.90
2018-06-19T05:14:21.107Z,19.90
2018-06-19T05:16:49.388Z,20.00
2018-06-19T05:19:17.662Z,20.00
2018-06-19T05:21:45.946Z,20.00
2018-06-19T05:24:14.254Z,20.00
2018-06-19T05:26:42.542Z,20.00
2018-06-19T05:29:10.827Z,20.10
2018-06-19T05:31:39.105Z,20.10
2018-06-19T05:34:07.362Z,20.10
2018-06-19T05:36:35.672Z,20.10
2018-06-19T05:39:06.228Z,20.10
2018-06-19T05:41:34.510Z,20.20
2018-06-19T05:44:03.242Z,20.20
2018-06-19T05:46:31.532Z,20.20
2018-06-19T05:48:59.800Z,20.20
2018-06-19T05:53:56.187Z,20.20
2018-06-19T05:56:24.462Z,20.20
2018-06-19T05:58:53.261Z,20.20
2018-06-19T06:01:21.548Z,20.20
2018-06-19T06:03:49.821Z,20.20
2018-06-19T06:06:18.456Z,20.20
2018-06-19T06:08:46.955Z,20.20
2018-06-19T06:11:15.272Z,20.20
2018-06-19T06:13:43.538Z,20.20
2018-06-19T06:16:11.800Z,20.20
2018-06-19T06:18:40.081Z,20.20
2018-06-19T06:21:08.352Z,20.20
2018-06-19T06:23:36.648Z,20.10
2018-06-19T06:26:05.453Z,20.10
2018-06-19T06:28:33.771Z,20.10
2018-06-19T06:31:02.052Z,20.10
2018-06-19T06:33:30.318Z,20.10
2018-06-19T06:35:58.600Z,20.10
2018-06-19T06:38:26.886Z,20.10
2018-06-19T06:40:55.331Z,20.10
2018-06-19T06:43:23.598Z,20.10
2018-06-19T06:45:51.866Z,20.20
2018-06-19T06:48:20.158Z,20.20
2018-06-19T06:50:48.485Z,20.20
2018-06-19T06:55:44.771Z,20.20
2018-06-19T06:58:13.629Z,20.20
2018-06-19T07:00:41.891Z,20.20
2018-06-19T07:03:10.199Z,20.30
2018-06-19T07:05:38.477Z,20.30
2018-06-19T07:08:06.749Z,20.30
2018-06-19T07:10:35.039Z,20.30
2018-06-19T07:13:03.303Z,20.30
2018-06-19T07:15:31.659Z,20.30
2018-06-19T07:17:59.966Z,20.30
2018-06-19T07:20:28.235Z,20.30
2018-06-19T07:22:56.507Z,20.30
2018-06-19T07:25:24.780Z,20.30
2018-06-19T07:27:53.084Z,20.30
2018-06-19T07:30:21.441Z,20.30
2018-06-19T07:32:49.722Z,20.30
2018-06-19T07:35:17.999Z,20.40
2018-06-19T07:37:46.377Z,20.40
2018-06-19T07:40:14.605Z,20.50
2018-06-19T07:42:42.878Z,20.50
2018-06-19T07:45:11.134Z,20.60
2018-06-19T07:47:39.412Z,20.60
2018-06-19T07:50:07.698Z,20.60
2018-06-19T07:52:36.011Z,20.60
2018-06-19T07:55:04.303Z,20.70
2018-06-19T07:57:32.601Z,20.70
2018-06-19T08:00:00.892Z,20.80
2018-06-19T08:02:29.207Z,20.80
2018-06-19T08:04:57.497Z,20.80
2018-06-19T08:07:25.787Z,20.80
2018-06-19T08:09:54.573Z,20.90
2018-06-19T08:12:22.963Z,20.80
2018-06-19T08:14:51.243Z,20.80
2018-06-19T08:17:19.545Z,20.80
2018-06-19T08:24:43.863Z,20.90
2018-06-19T08:27:12.159Z,20.90
2018-06-19T08:29:40.417Z,21.00
2018-06-19T08:32:08.691Z,21.00
2018-06-19T08:34:36.954Z,21.10
2018-06-19T08:39:33.241Z,21.30
2018-06-19T08:42:01.512Z,21.30
2018-06-19T08:44:29.810Z,21.40
2018-06-19T08:46:58.181Z,21.40
2018-06-19T08:49:26.449Z,21.40
2018-06-19T08:51:54.811Z,21.40
2018-06-19T08:54:23.306Z,21.50
2018-06-19T08:56:51.551Z,21.60
2018-06-19T08:59:19.860Z,21.60
2018-06-19T09:01:48.189Z,21.70
2018-06-19T09:04:16.492Z,21.70
2018-06-19T09:06:44.775Z,21.80
2018-06-19T09:09:13.765Z,21.80
2018-06-19T09:11:42.040Z,21.80
2018-06-19T09:14:10.331Z,21.90
2018-06-19T09:16:38.625Z,21.90
2018-06-19T09:19:06.936Z,21.90
2018-06-19T09:21:35.188Z,21.90
2018-06-19T09:24:03.470Z,21.90
2018-06-19T09:26:31.770Z,21.90
2018-06-19T09:29:00.034Z,22.00
2018-06-19T09:31:28.317Z,21.90
2018-06-19T09:33:56.597Z,21.90
2018-06-19T09:36:24.900Z,22.00
2018-06-19T09:38:53.199Z,22.00
2018-06-19T09:41:21.478Z,22.00
2018-06-19T09:43:49.751Z,22.00
2018-06-19T09:46:18.033Z,22.10
2018-06-19T09:48:46.885Z,22.10
2018-06-19T09:51:15.175Z,22.10
2018-06-19T09:53:43.532Z,22.20
2018-06-19T09:56:11.741Z,22.20
2018-06-19T09:58:40.044Z,22.20
2018-06-19T10:01:08.333Z,22.30
2018-06-19T10:03:36.925Z,22.30
2018-06-19T10:06:05.217Z,22.40
2018-06-19T10:08:33.498Z,22.40
2018-06-19T10:11:01.777Z,22.50
2018-06-19T10:13:30.055Z,22.50
2018-06-19T10:15:58.373Z,22.50
2018-06-19T10:18:26.680Z,22.50
2018-06-19T10:20:54.988Z,22.50
2018-06-19T10:25:51.388Z,22.60
2018-06-19T10:28:19.727Z,22.70
2018-06-19T10:30:48.054Z,22.70
2018-06-19T10:33:16.376Z,22.70
2018-06-19T10:35:44.672Z,22.70
2018-06-19T10:38:12.976Z,22.80
2018-06-19T10:40:41.295Z,22.80
2018-06-19T10:43:09.693Z,22.80
2018-06-19T10:45:37.980Z,22.80
2018-06-19T10:48:06.250Z,22.80
2018-06-19T10:50:34.522Z,22.80
2018-06-19T10:53:02.902Z,22.80
2018-06-19T10:55:31.280Z,22.80
2018-06-19T11:00:27.681Z,22.70
2018-06-19T11:02:55.947Z,22.70
2018-06-19T11:05:24.252Z,22.70
2018-06-19T11:07:52.550Z,22.70
2018-06-19T11:10:20.834Z,22.80
2018-06-19T11:12:49.129Z,22.80
2018-06-19T11:15:17.417Z,22.80
2018-06-19T11:17:45.753Z,22.80
2018-06-19T11:20:14.024Z,22.80
2018-06-19T11:22:42.980Z,22.80
2018-06-19T11:25:11.324Z,22.80
2018-06-19T11:27:39.640Z,22.80
2018-06-19T11:30:07.947Z,22.90
2018-06-19T11:32:36.208Z,22.90
2018-06-19T11:35:04.514Z,22.90
2018-06-19T11:37:32.821Z,22.90
2018-06-19T11:40:01.130Z,23.00
2018-06-19T11:42:29.482Z,23.00
2018-06-19T11:44:57.931Z,23.00
2018-06-19T11:47:26.195Z,23.00
2018-06-19T11:49:54.495Z,23.00
2018-06-19T11:52:22.773Z,23.00
2018-06-19T11:54:51.060Z,23.00
2018-06-19T11:57:19.345Z,23.10
2018-06-19T11:59:47.739Z,23.10
2018-06-19T12:02:16.170Z,23.10
2018-06-19T12:04:44.447Z,23.10
2018-06-19T12:07:12.844Z,23.10
2018-06-19T12:09:41.124Z,23.20
2018-06-19T12:12:09.400Z,23.20
2018-06-19T12:14:37.670Z,23.30
2018-06-19T12:17:05.947Z,23.30
2018-06-19T12:19:34.242Z,23.30
2018-06-19T12:22:02.512Z,23.30
2018-06-19T12:24:30.798Z,23.30
2018-06-19T12:26:59.068Z,23.40
2018-06-19T12:29:27.366Z,23.40
2018-06-19T12:31:55.664Z,23.40
2018-06-19T12:34:23.922Z,23.40
2018-06-19T12:36:52.246Z,23.50
2018-06-19T12:39:20.540Z,23.50
2018-06-19T12:41:48.857Z,23.50
2018-06-19T12:46:45.254Z,23.50
2018-06-19T12:49:13.556Z,23.50
2018-06-19T12:51:54.778Z,23.50
2018-06-19T12:54:38.683Z,23.50
2018-06-19T12:57:06.950Z,23.60
2018-06-19T12:59:35.202Z,23.60
2018-06-19T13:02:03.515Z,23.60
2018-06-19T13:04:43.099Z,23.60
2018-06-19T13:07:11.380Z,23.60
2018-06-19T13:09:39.730Z,23.60
2018-06-19T13:12:18.095Z,23.60
2018-06-19T13:14:46.388Z,23.60
2018-06-19T13:17:26.279Z,23.60
2018-06-19T13:20:05.915Z,23.70
2018-06-19T13:22:34.198Z,23.70
2018-06-19T13:25:02.465Z,23.70
2018-06-19T13:30:11.268Z,23.70
2018-06-19T13:32:40.023Z,23.80
2018-06-19T13:35:08.332Z,23.80
2018-06-19T13:37:36.705Z,23.80
2018-06-19T13:41:21.646Z,23.80
2018-06-19T13:44:02.919Z,23.80
2018-06-19T13:46:31.190Z,23.80
2018-06-19T13:48:59.475Z,23.80
2018-06-19T13:51:27.775Z,23.90
2018-06-19T13:53:56.106Z,23.90
2018-06-19T13:57:40.152Z,23.90
2018-06-19T14:00:24.779Z,23.90
2018-06-19T14:02:53.096Z,23.90
2018-06-19T14:05:21.424Z,23.90
2018-06-19T14:08:07.150Z,24.00
2018-06-19T14:11:54.218Z,24.00
2018-06-19T14:14:22.516Z,24.00
2018-06-19T14:16:50.809Z,23.90
2018-06-19T14:19:19.108Z,23.90
2018-06-19T14:21:47.361Z,24.00
2018-06-19T14:24:15.654Z,24.00
2018-06-19T14:26:43.949Z,23.90
2018-06-19T14:31:40.239Z,24.00
2018-06-19T14:34:08.544Z,23.90
2018-06-19T14:36:36.775Z,24.00
2018-06-19T14:39:07.117Z,24.00
2018-06-19T14:41:35.476Z,24.00
2018-06-19T14:44:03.802Z,24.00
2018-06-19T14:46:32.074Z,24.00
2018-06-19T14:49:00.356Z,24.10
2018-06-19T14:51:28.657Z,24.10
2018-06-19T14:53:57.096Z,24.00
2018-06-19T14:58:54.148Z,24.10
2018-06-19T15:01:22.404Z,24.00
2018-06-19T15:03:50.686Z,24.10
2018-06-19T15:06:18.983Z,24.00
2018-06-19T15:08:47.276Z,24.00
2018-06-19T15:11:15.558Z,24.00
2018-06-19T15:13:43.854Z,24.00
2018-06-19T15:16:12.134Z,24.00
2018-06-19T15:18:40.431Z,24.00
2018-06-19T15:23:36.812Z,24.00
2018-06-19T15:26:05.134Z,24.00
2018-06-19T15:28:33.438Z,24.00
2018-06-19T15:31:01.748Z,24.00
2018-06-19T15:35:58.081Z,24.00
2018-06-19T15:38:26.359Z,24.00
2018-06-19T15:40:54.639Z,24.00
2018-06-19T15:43:22.946Z,24.00
2018-06-19T15:45:51.614Z,24.00
2018-06-19T15:48:19.922Z,24.00
2018-06-19T15:53:16.282Z,24.00
2018-06-19T15:58:12.608Z,24.00
2018-06-19T16:00:40.887Z,24.00
2018-06-19T16:03:09.319Z,24.00
2018-06-19T16:05:37.605Z,24.00
2018-06-19T16:08:11.218Z,24.10
2018-06-19T16:10:39.508Z,24.10
2018-06-19T16:13:07.785Z,24.00
2018-06-19T16:15:36.063Z,24.00
2018-06-19T16:18:04.433Z,24.10
2018-06-19T16:20:32.793Z,24.00
2018-06-19T16:23:01.185Z,24.00
2018-06-19T16:25:29.497Z,24.00
2018-06-19T16:27:57.791Z,24.10
2018-06-19T16:30:26.103Z,24.00
2018-06-19T16:32:54.405Z,24.10
2018-06-19T16:35:22.852Z,24.00
2018-06-19T16:37:51.269Z,24.00
2018-06-19T16:40:19.603Z,24.00
2018-06-19T16:42:47.887Z,23.90
2018-06-19T16:45:16.140Z,23.90
2018-06-19T16:47:44.743Z,23.90
2018-06-19T16:55:09.217Z,23.90
2018-06-19T16:57:37.500Z,23.90
2018-06-19T17:00:06.549Z,23.90
2018-06-19T17:02:35.325Z,23.90
2018-06-19T17:05:03.803Z,23.90
2018-06-19T17:07:32.201Z,23.90
2018-06-19T17:10:00.521Z,23.90
2018-06-19T17:12:28.955Z,23.90
2018-06-19T17:14:57.243Z,23.90
2018-06-19T17:17:25.949Z,23.90
2018-06-19T17:19:54.516Z,23.80
2018-06-19T17:22:22.809Z,23.80
2018-06-19T17:24:51.088Z,23.80
2018-06-19T17:27:19.387Z,23.80
2018-06-19T17:29:47.705Z,23.80
2018-06-19T17:32:16.011Z,23.80
2018-06-19T17:34:44.449Z,23.80
2018-06-19T17:39:40.845Z,23.80
2018-06-19T17:42:09.187Z,23.80
2018-06-19T17:44:37.560Z,23.80
2018-06-19T17:47:05.911Z,23.80
2018-06-19T17:52:02.317Z,23.80
2018-06-19T17:56:58.758Z,23.80
2018-06-19T17:59:27.111Z,23.90
2018-06-19T18:01:55.613Z,23.90
2018-06-19T18:04:23.861Z,23.90
2018-06-19T18:06:52.169Z,23.90
2018-06-19T18:11:48.653Z,23.80
2018-06-19T18:14:16.981Z,23.80
2018-06-19T18:16:45.332Z,23.80
2018-06-19T18:19:13.817Z,23.80
2018-06-19T18:21:42.116Z,23.80
2018-06-19T18:24:10.468Z,23.80
2018-06-19T18:26:38.846Z,23.80
2018-06-19T18:29:07.398Z,23.70
2018-06-19T18:31:35.701Z,23.70
2018-06-19T18:36:32.086Z,23.70
2018-06-19T18:39:00.451Z,23.70
2018-06-19T18:41:28.784Z,23.60
2018-06-19T18:43:57.089Z,23.60
2018-06-19T18:46:25.523Z,23.60
2018-06-19T18:48:54.039Z,23.60
2018-06-19T18:51:22.388Z,23.60
2018-06-19T18:53:50.693Z,23.60
2018-06-19T18:56:19.159Z,23.50
2018-06-19T18:58:47.490Z,23.50
2018-06-19T19:01:15.839Z,23.50
2018-06-19T19:03:44.185Z,23.50
2018-06-19T19:06:12.698Z,23.50
2018-06-19T19:08:41.006Z,23.40
2018-06-19T19:11:09.363Z,23.40
2018-06-19T19:16:11.664Z,23.40
2018-06-19T19:18:45.280Z,23.40
2018-06-19T19:21:13.612Z,23.30
2018-06-19T19:23:41.964Z,23.30
2018-06-19T19:26:10.361Z,23.30
2018-06-19T19:28:43.926Z,23.30
2018-06-19T19:31:12.219Z,23.30
2018-06-19T19:33:40.582Z,23.20
2018-06-19T19:36:14.286Z,23.20
2018-06-19T19:38:48.054Z,23.20
2018-06-19T19:41:16.403Z,23.20
2018-06-19T19:43:44.692Z,23.10
2018-06-19T19:46:18.503Z,23.10
2018-06-19T19:48:52.273Z,23.10
2018-06-19T19:51:20.752Z,23.00
2018-06-19T19:53:49.140Z,23.00
2018-06-19T19:56:22.790Z,23.00
2018-06-19T19:58:52.696Z,23.00
2018-06-19T20:01:21.095Z,23.00
2018-06-19T20:06:18.082Z,23.00
2018-06-19T20:08:46.493Z,22.90
2018-06-19T20:11:14.842Z,22.90
2018-06-19T20:16:11.218Z,22.90
2018-06-19T20:18:39.576Z,22.90
2018-06-19T20:21:07.930Z,22.90
2018-06-19T20:23:36.250Z,22.90
2018-06-19T20:26:04.704Z,22.90
2018-06-19T20:28:32.989Z,22.90
2018-06-19T20:31:01.269Z,22.80
2018-06-19T20:33:29.757Z,22.80
2018-06-19T20:35:58.075Z,22.80
2018-06-19T20:38:26.472Z,22.80
2018-06-19T20:40:54.831Z,22.80
2018-06-19T20:43:23.192Z,22.70
2018-06-19T20:45:51.483Z,22.80
2018-06-19T20:48:19.982Z,22.70
2018-06-19T20:50:48.345Z,22.80
2018-06-19T20:53:16.836Z,22.80
2018-06-19T20:55:45.315Z,22.80
2018-06-19T20:58:13.928Z,22.80
2018-06-19T21:00:42.294Z,22.80
2018-06-19T21:03:10.743Z,22.70
2018-06-19T21:05:39.066Z,22.80
2018-06-19T21:08:07.800Z,22.80
2018-06-19T21:10:36.062Z,22.80
2018-06-19T21:15:32.450Z,22.70
2018-06-19T21:18:01.098Z,22.80
2018-06-19T21:20:29.804Z,22.70
2018-06-19T21:22:58.156Z,22.80
2018-06-19T21:25:26.444Z,22.70
2018-06-19T21:27:54.733Z,22.70
2018-06-19T21:30:23.089Z,22.80
2018-06-19T21:32:51.398Z,22.80
2018-06-19T21:35:19.973Z,22.80
2018-06-19T21:37:48.262Z,22.80
2018-06-19T21:40:16.563Z,22.80
2018-06-19T21:42:44.872Z,22.70
2018-06-19T21:45:13.220Z,22.70
2018-06-19T21:47:41.516Z,22.70
2018-06-19T21:50:09.806Z,22.70
2018-06-19T21:55:06.124Z,22.70
2018-06-19T21:57:34.506Z,22.70
2018-06-19T22:00:02.906Z,22.70
2018-06-19T22:02:31.563Z,22.70
2018-06-19T22:05:00.802Z,22.70
2018-06-19T22:07:29.414Z,22.70
2018-06-19T22:09:57.879Z,22.70
2018-06-19T22:12:26.228Z,22.70
2018-06-19T22:14:54.507Z,22.70
2018-06-19T22:17:22.782Z,22.70
2018-06-19T22:19:51.098Z,22.70
2018-06-19T22:22:19.403Z,22.70
2018-06-19T22:24:47.987Z,22.70
2018-06-19T22:27:16.353Z,22.70
2018-06-19T22:29:44.660Z,22.70
2018-06-19T22:32:13.050Z,22.70
2018-06-19T22:34:41.368Z,22.70
2018-06-19T22:37:09.664Z,22.70
2018-06-19T22:39:37.961Z,22.60
2018-06-19T22:42:06.530Z,22.60
2018-06-19T22:44:34.808Z,22.70
2018-06-19T22:47:03.108Z,22.70
2018-06-19T22:49:31.472Z,22.70
2018-06-19T22:51:59.754Z,22.70
2018-06-19T22:54:28.036Z,22.60
2018-06-19T22:56:56.346Z,22.60
2018-06-19T22:59:24.624Z,22.60
2018-06-19T23:04:20.942Z,22.60
2018-06-19T23:06:49.252Z,22.60
2018-06-19T23:09:17.631Z,22.60
2018-06-19T23:11:45.920Z,22.60
2018-06-19T23:14:14.220Z,22.60
2018-06-19T23:16:42.518Z,22.60
2018-06-19T23:19:11.012Z,22.60
2018-06-19T23:21:39.291Z,22.60
2018-06-19T23:24:07.634Z,22.60
2018-06-19T23:26:35.912Z,22.60
2018-06-19T23:29:04.208Z,22.60
2018-06-19T23:31:32.464Z,22.60
2018-06-19T23:34:00.814Z,22.60
2018-06-19T23:36:29.138Z,22.60
2018-06-19T23:38:57.399Z,22.60
2018-06-19T23:43:53.690Z,22.60
2018-06-19T23:46:21.980Z,22.50
2018-06-19T23:48:50.258Z,22.50
2018-06-19T23:51:18.518Z,22.50
2018-06-19T23:53:46.816Z,22.60
2018-06-19T23:56:15.098Z,22.50
2018-06-19T23:58:43.408Z,22.50
